Time;durP1;ratioP1;P1;durP2;ratioP2;P2;SDS_P1;SDS_P2;PMS_P1;PMS_P2;Temp;Humidity;BMP_temperature;BMP_pressure;BME280_temperature;BME280_humidity;BME280_pressure;Samples;Min_cycle;Max_cycle;Signal;HPM_P1;HPM_P2
2023/10/22 00:02:10;;;;;;;10.65;3.60;;;;;;;22.45;36.58;94799.50;4963974;28;20249;-73
2023/10/22 00:04:38;;;;;;;11.02;3.70;;;;;;;22.45;36.39;94803.03;4950582;28;20826;-73
2023/10/22 00:07:04;;;;;;;10.90;3.72;;;;;;;22.29;37.51;94806.34;4993474;28;20711;-72
2023/10/22 00:09:29;;;;;;;9.90;3.70;;;;;;;22.31;35.89;94788.19;4975320;28;20227;-73
2023/10/22 00:11:55;;;;;;;10.70;3.53;;;;;;;22.24;35.97;94779.47;4968833;28;20227;-73
2023/10/22 00:14:20;;;;;;;9.77;3.35;;;;;;;22.27;34.69;94781.66;4971965;28;20203;-73
2023/10/22 00:16:46;;;;;;;10.00;3.10;;;;;;;22.24;34.69;94766.88;4991501;28;20188;-73
2023/10/22 00:19:11;;;;;;;15.80;3.55;;;;;;;22.34;34.28;94770.84;4967341;28;20216;-73
2023/10/22 00:21:36;;;;;;;9.68;2.92;;;;;;;;;;4970082;28;20219;-73
2023/10/22 00:24:02;;;;;;;16.67;3.55;;;;;;;22.34;35.65;94768.16;4992997;28;20227;-73
2023/10/22 00:26:27;;;;;;;15.63;2.95;;;;;;;22.31;35.62;94766.75;4970785;28;20800;-73
2023/10/22 00:28:52;;;;;;;10.63;2.78;;;;;;;22.32;35.70;94760.38;4971574;28;20212;-73
2023/10/22 00:31:18;;;;;;;10.50;3.08;;;;;;;22.34;36.28;94768.16;4967509;28;20311;-73
2023/10/22 00:33:43;;;;;;;12.25;3.33;;;;;;;22.30;36.31;94753.59;4949333;28;20244;-73
2023/10/22 00:36:09;;;;;;;10.30;3.28;;;;;;;22.33;36.65;94764.66;4958130;28;20711;-73
2023/10/22 00:38:34;;;;;;;8.63;3.28;;;;;;;22.33;36.78;94763.84;4951045;28;20200;-73
2023/10/22 00:41:00;;;;;;;8.77;3.15;;;;;;;22.28;36.91;94772.56;4985419;28;20200;-73
2023/10/22 00:43:25;;;;;;;9.52;3.42;;;;;;;22.29;36.64;94784.09;4966246;28;20271;-73
2023/10/22 00:45:52;;;;;;;9.80;3.47;;;;;;;22.22;37.11;94784.22;4960070;28;20233;-73
2023/10/22 00:48:20;;;;;;;12.77;3.33;;;;;;;22.26;37.08;94779.22;4965181;28;20645;-73
2023/10/22 00:50:45;;;;;;;8.00;3.30;;;;;;;22.22;37.19;94777.00;4967227;28;20224;-73
2023/10/22 00:53:14;;;;;;;7.18;3.00;;;;;;;22.17;37.09;94757.28;4984074;28;20237;-73
2023/10/22 00:55:41;;;;;;;12.68;3.70;;;;;;;22.17;37.42;94768.00;4971314;28;20219;-70
2023/10/22 00:58:07;;;;;;;9.68;3.22;;;;;;;22.12;37.35;94759.81;4968939;28;20225;-70
2023/10/22 01:00:34;;;;;;;8.88;3.22;;;;;;;22.12;37.77;94754.47;4975548;28;20286;-70
2023/10/22 01:03:01;;;;;;;6.65;3.38;;;;;;;21.98;37.87;94759.22;4967473;28;20228;-70
2023/10/22 01:05:28;;;;;;;11.10;3.20;;;;;;;21.91;37.91;94750.47;4966203;28;20198;-70
2023/10/22 01:07:53;;;;;;;10.38;3.55;;;;;;;21.95;37.58;94752.47;4965656;28;20192;-71
2023/10/22 01:10:19;;;;;;;11.13;3.63;;;;;;;21.95;37.74;94752.47;4972441;28;20303;-70
2023/10/22 01:12:44;;;;;;;8.45;3.45;;;;;;;21.94;37.58;94758.84;4967693;28;20284;-70
2023/10/22 01:15:10;;;;;;;11.40;3.83;;;;;;;21.99;37.59;94748.25;4968401;28;20216;-75
2023/10/22 01:17:35;;;;;;;11.85;3.47;;;;;;;21.91;37.78;94748.59;4963057;28;20288;-75
2023/10/22 01:20:01;;;;;;;11.50;3.33;;;;;;;21.90;37.82;94746.97;4973707;28;20197;-75
2023/10/22 01:22:26;;;;;;;9.70;3.78;;;;;;;21.89;37.54;94748.03;4980841;28;20217;-75
2023/10/22 01:24:52;;;;;;;9.98;3.65;;;;;;;21.76;37.97;94749.03;4974382;28;20558;-75
2023/10/22 01:27:17;;;;;;;7.05;3.70;;;;;;;21.69;38.32;94736.78;4969024;28;20230;-75
2023/10/22 01:29:42;;;;;;;7.03;3.40;;;;;;;21.77;37.99;94749.84;4967600;28;20227;-75
2023/10/22 01:32:08;;;;;;;8.60;3.42;;;;;;;21.79;37.98;94764.63;4970899;28;20207;-75
2023/10/22 01:34:33;;;;;;;9.85;3.55;;;;;;;21.85;37.64;94754.88;4967474;28;20248;-75
2023/10/22 01:36:59;;;;;;;8.45;3.22;;;;;;;21.90;37.57;94751.50;4960364;28;20291;-75
2023/10/22 01:39:24;;;;;;;9.85;3.35;;;;;;;21.86;37.44;94764.53;4966013;28;20225;-75
2023/10/22 01:41:50;;;;;;;11.63;3.42;;;;;;;21.90;37.45;94760.34;4964800;28;20231;-75
2023/10/22 01:44:16;;;;;;;9.45;3.55;;;;;;;21.91;37.59;94764.66;4981299;28;20197;-74
2023/10/22 01:46:41;;;;;;;7.85;2.90;;;;;;;21.91;37.10;94763.84;4969310;28;20239;-75
2023/10/22 01:49:07;;;;;;;9.48;3.38;;;;;;;21.91;37.52;94751.28;4972377;28;20688;-75
2023/10/22 01:51:32;;;;;;;7.88;3.42;;;;;;;21.88;37.51;94745.56;4975202;28;20223;-72
2023/10/22 01:53:58;;;;;;;9.25;4.03;;;;;;;21.84;37.73;94755.94;4977077;28;20251;-72
2023/10/22 01:56:24;;;;;;;7.32;3.47;;;;;;;21.88;37.55;94751.72;4991219;28;20270;-72
2023/10/22 01:58:49;;;;;;;8.48;3.72;;;;;;;21.77;37.86;94747.16;4977309;28;20188;-73
2023/10/22 02:01:15;;;;;;;9.85;3.42;;;;;;;21.78;37.53;94762.16;4985371;28;20232;-73
2023/10/22 02:03:45;;;;;;;8.05;3.55;;;;;;;21.75;37.22;94751.91;4971757;28;20232;-73
2023/10/22 02:06:12;;;;;;;12.27;3.20;;;;;;;21.86;35.63;94736.94;4979977;28;20292;-72
2023/10/22 02:08:38;;;;;;;13.63;3.13;;;;;;;21.68;35.64;94748.50;4969734;28;20565;-72
2023/10/22 02:11:03;;;;;;;10.57;3.30;;;;;;;21.68;35.34;94735.97;4968479;28;20199;-72
2023/10/22 02:13:29;;;;;;;9.98;3.33;;;;;;;21.75;35.54;94757.28;4972930;28;20220;-72
2023/10/22 02:15:54;;;;;;;10.98;3.15;;;;;;;21.82;36.35;94751.84;4989121;28;20246;-72
2023/10/22 02:18:20;;;;;;;10.05;3.10;;;;;;;21.79;36.83;94740.53;4964954;28;20229;-72
2023/10/22 02:21:03;;;;;;;8.15;3.60;;;;;;;21.75;37.27;94738.53;4957996;28;20224;-72
2023/10/22 02:23:28;;;;;;;9.50;3.22;;;;;;;21.72;37.52;94747.84;4968522;28;20192;-72
2023/10/22 02:25:54;;;;;;;10.48;3.33;;;;;;;21.74;37.16;94758.31;4974042;28;20207;-72
2023/10/22 02:28:20;;;;;;;7.60;3.15;;;;;;;21.52;37.34;94758.00;4965564;28;20224;-72
2023/10/22 02:30:50;;;;;;;8.98;3.42;;;;;;;21.56;37.17;94751.16;4973238;28;20234;-72
2023/10/22 02:33:16;;;;;;;9.23;2.83;;;;;;;21.53;36.77;94738.22;4984156;28;20251;-72
2023/10/22 02:35:44;;;;;;;8.93;3.13;;;;;;;21.42;37.18;94731.78;4972812;28;20234;-72
2023/10/22 02:38:14;;;;;;;7.40;2.88;;;;;;;21.47;36.76;94733.78;4972727;28;20184;-72
2023/10/22 02:40:40;;;;;;;9.15;2.50;;;;;;;21.46;36.73;94730.28;4965550;28;20232;-72
2023/10/22 02:43:06;;;;;;;9.45;3.35;;;;;;;21.42;37.41;94734.47;4977106;28;20231;-72
2023/10/22 02:45:31;;;;;;;7.30;3.17;;;;;;;21.39;37.90;94732.25;4964586;28;20229;-72
2023/10/22 02:47:59;;;;;;;10.98;3.10;;;;;;;21.36;37.56;94743.38;4947870;28;20229;-72
2023/10/22 02:50:25;;;;;;;11.27;3.83;;;;;;;21.39;37.86;94742.13;4968972;28;20211;-72
2023/10/22 02:52:51;;;;;;;10.55;3.40;;;;;;;21.26;37.83;94743.09;4981558;28;20184;-72
2023/10/22 02:55:17;;;;;;;13.63;4.03;;;;;;;21.28;37.63;94746.34;4987268;28;20234;-72
2023/10/22 02:57:43;;;;;;;9.35;3.40;;;;;;;21.37;37.11;94726.28;4972032;28;20231;-72
2023/10/22 03:00:12;;;;;;;11.10;3.83;;;;;;;21.27;37.17;94740.16;4973913;28;20285;-72
2023/10/22 03:02:39;;;;;;;8.77;3.30;;;;;;;21.24;37.65;94739.81;4969119;28;20192;-72
2023/10/22 03:05:05;;;;;;;8.57;3.08;;;;;;;21.23;37.45;94744.34;4973199;28;20203;-72
2023/10/22 03:07:30;;;;;;;9.70;3.42;;;;;;;21.17;37.69;94745.25;4966352;28;20261;-72
2023/10/22 03:09:56;;;;;;;11.75;3.28;;;;;;;21.21;37.90;94751.78;4963631;28;20216;-72
2023/10/22 03:12:21;;;;;;;11.40;3.92;;;;;;;21.17;38.03;94749.75;4969387;28;20240;-72
2023/10/22 03:14:49;;;;;;;9.20;3.20;;;;;;;21.05;38.26;94734.47;4970248;28;20220;-72
2023/10/22 03:17:16;;;;;;;12.13;4.78;;;;;;;21.02;38.12;94734.94;4984405;28;20192;-72
2023/10/22 03:19:42;;;;;;;8.68;3.85;;;;;;;21.06;38.14;94720.09;4968696;28;20224;-72
2023/10/22 03:22:08;;;;;;;9.65;3.38;;;;;;;21.00;38.52;94728.97;4963667;28;20228;-72
2023/10/22 03:24:34;;;;;;;11.05;3.75;;;;;;;20.91;38.75;94719.63;4964392;28;20256;-72
2023/10/22 03:27:00;;;;;;;9.98;3.92;;;;;;;20.90;38.67;94718.81;4951469;28;20257;-72
2023/10/22 03:29:26;;;;;;;10.65;4.07;;;;;;;20.88;38.95;94725.44;4971998;28;20191;-72
2023/10/22 03:31:52;;;;;;;11.35;3.75;;;;;;;20.79;38.82;94724.06;4982598;28;20243;-72
2023/10/22 03:34:17;;;;;;;12.60;3.67;;;;;;;20.84;38.69;94713.53;4966091;28;20240;-72
2023/10/22 03:36:44;;;;;;;10.23;3.65;;;;;;;20.85;38.76;94720.50;4974713;28;20255;-72
2023/10/22 03:39:10;;;;;;;11.63;4.05;;;;;;;20.71;38.83;94725.19;4971961;28;20220;-72
2023/10/22 03:41:35;;;;;;;7.20;3.35;;;;;;;20.70;39.03;94719.03;4972019;28;20188;-73
2023/10/22 03:44:01;;;;;;;13.90;3.45;;;;;;;20.70;38.52;94705.66;4972777;28;20192;-72
2023/10/22 03:46:26;;;;;;;9.00;3.75;;;;;;;20.76;38.46;94711.16;4975276;28;20314;-73
2023/10/22 03:48:52;;;;;;;9.50;4.15;;;;;;;20.76;38.59;94705.81;4968474;28;20226;-73
2023/10/22 03:51:17;;;;;;;11.80;4.70;;;;;;;20.65;38.61;94715.41;4971076;28;20216;-75
2023/10/22 03:53:42;;;;;;;9.63;3.75;;;;;;;20.63;38.60;94723.63;4968977;28;20294;-73
2023/10/22 03:56:08;;;;;;;10.98;4.05;;;;;;;20.66;38.36;94723.19;4971294;28;20211;-73
2023/10/22 03:58:33;;;;;;;10.65;3.60;;;;;;;20.66;38.29;94727.69;4971357;28;20228;-73
2023/10/22 04:00:59;;;;;;;10.02;3.65;;;;;;;20.63;38.30;94728.97;4979011;28;20223;-73
2023/10/22 04:03:24;;;;;;;12.40;4.18;;;;;;;20.43;38.56;94714.97;4967799;28;20222;-73
2023/10/22 04:05:57;;;;;;;8.93;3.65;;;;;;;20.53;38.46;94712.63;4966210;28;20230;-73
2023/10/22 04:08:23;;;;;;;9.95;3.88;;;;;;;20.58;38.50;94720.81;4980981;28;20184;-73
2023/10/22 04:10:49;;;;;;;9.90;3.83;;;;;;;20.54;38.99;94718.81;4967497;28;20243;-72
2023/10/22 04:13:15;;;;;;;9.70;3.72;;;;;;;20.53;39.08;94727.81;4969181;28;20316;-73
2023/10/22 04:15:40;;;;;;;14.13;4.10;;;;;;;20.37;39.70;94708.66;4965477;28;20224;-73
2023/10/22 04:18:06;;;;;;;11.60;4.07;;;;;;;20.38;39.55;94728.16;4951723;28;20684;-72
2023/10/22 04:20:33;;;;;;;16.60;4.80;;;;;;;20.32;39.40;94718.38;4950577;28;20189;-73
2023/10/22 04:22:58;;;;;;;12.43;3.70;;;;;;;20.43;39.26;94717.66;4959889;28;20188;-72
2023/10/22 04:25:24;;;;;;;14.00;4.57;;;;;;;20.27;39.78;94717.16;4955802;28;20355;-73
2023/10/22 04:27:49;;;;;;;8.52;3.70;;;;;;;20.32;39.51;94750.41;4953225;28;20228;-73
2023/10/22 04:30:14;;;;;;;11.75;3.90;;;;;;;20.11;40.03;94727.56;4988910;28;20222;-72
2023/10/22 04:32:41;;;;;;;11.18;4.53;;;;;;;20.19;40.17;94732.66;4985635;28;20221;-73
2023/10/22 04:35:06;;;;;;;9.30;4.53;;;;;;;20.19;39.82;94756.66;4968251;28;20300;-73
2023/10/22 04:37:32;;;;;;;12.77;3.78;;;;;;;20.06;39.94;94760.25;4980249;28;20300;-73
2023/10/22 04:39:57;;;;;;;11.77;4.03;;;;;;;20.14;39.67;94780.53;4955818;28;20718;-73
2023/10/22 04:42:24;;;;;;;11.38;4.45;;;;;;;19.89;39.79;94764.47;4987564;28;20271;-72
2023/10/22 04:44:49;;;;;;;6.90;3.33;;;;;;;20.03;39.48;94774.03;4967311;28;20230;-73
2023/10/22 04:47:15;;;;;;;10.38;3.60;;;;;;;20.03;39.47;94777.50;4970459;28;20207;-73
2023/10/22 04:49:43;;;;;;;9.15;3.90;;;;;;;20.10;39.34;94776.63;4982206;28;20266;-73
2023/10/22 04:52:10;;;;;;;11.25;3.50;;;;;;;20.12;39.33;94783.41;4979908;28;20224;-74
2023/10/22 04:54:36;;;;;;;11.65;3.85;;;;;;;20.11;39.20;94800.47;4969670;28;20229;-73
2023/10/22 04:57:02;;;;;;;9.00;3.75;;;;;;;19.78;39.59;94806.81;4967142;28;20230;-73
2023/10/22 04:59:28;;;;;;;11.73;3.75;;;;;;;19.82;39.30;94810.69;4966189;28;20193;-72
2023/10/22 05:01:53;;;;;;;10.20;4.43;;;;;;;19.75;39.75;94817.94;4985256;28;20190;-73
2023/10/22 05:04:19;;;;;;;11.00;3.72;;;;;;;19.66;39.81;94799.69;4971922;28;20283;-74
2023/10/22 05:06:44;;;;;;;11.13;3.70;;;;;;;19.81;39.59;94801.06;4968237;28;21031;-75
2023/10/22 05:09:10;;;;;;;9.70;4.05;;;;;;;19.84;39.54;94821.16;4971093;28;20290;-74
2023/10/22 05:11:35;;;;;;;10.05;3.78;;;;;;;19.79;39.47;94805.78;4970809;28;20176;-75
2023/10/22 05:14:01;;;;;;;10.52;3.88;;;;;;;20.01;39.22;94816.13;4968437;28;20180;-73
2023/10/22 05:16:27;;;;;;;14.95;4.55;;;;;;;19.96;39.60;94807.94;4970841;28;20219;-74
2023/10/22 05:18:53;;;;;;;12.65;4.20;;;;;;;19.94;39.84;94799.31;4960021;28;20228;-74
2023/10/22 05:21:18;;;;;;;14.02;4.25;;;;;;;19.95;39.81;94817.00;4950886;28;20267;-73
2023/10/22 05:26:28;;;;;;;12.55;3.47;;;;;;;19.93;39.80;94792.38;4969777;28;20206;-74
2023/10/22 05:28:55;;;;;;;14.32;4.82;;;;;;;19.91;39.71;94815.78;4969404;28;20287;-74
2023/10/22 05:31:20;;;;;;;12.10;3.90;;;;;;;19.73;39.86;94803.97;4962760;28;20219;-74
2023/10/22 05:33:46;;;;;;;12.77;4.20;;;;;;;19.82;40.00;94781.34;4968375;28;20240;-73
2023/10/22 05:36:16;;;;;;;13.40;4.20;;;;;;;19.84;40.17;94791.81;4958330;28;20226;-73
2023/10/22 05:38:42;;;;;;;11.45;3.90;;;;;;;19.88;39.99;94789.53;4979194;28;20290;-74
2023/10/22 05:41:08;;;;;;;10.27;4.05;;;;;;;20.01;39.87;94797.44;4972967;28;20188;-74
2023/10/22 05:43:34;;;;;;;10.43;4.43;;;;;;;19.97;40.79;94806.94;4976799;28;20240;-74
2023/10/22 05:45:59;;;;;;;7.25;3.58;;;;;;;19.99;41.16;94807.50;4970473;28;20220;-74
2023/10/22 05:48:25;;;;;;;11.43;3.72;;;;;;;20.05;41.53;94822.69;4973502;28;20231;-72
2023/10/22 05:50:50;;;;;;;15.60;4.40;;;;;;;20.04;41.57;94821.03;4975977;28;20286;-73
2023/10/22 05:53:16;;;;;;;15.18;4.07;;;;;;;19.92;41.97;94814.75;4970128;28;20287;-74
2023/10/22 05:55:41;;;;;;;5.70;3.72;;;;;;;19.94;42.10;94823.34;4959229;28;20228;-74
2023/10/22 05:58:07;;;;;;;12.77;4.10;;;;;;;20.03;41.94;94817.56;4972820;28;20241;-73
2023/10/22 06:00:32;;;;;;;9.70;3.95;;;;;;;19.99;42.40;94812.84;4972252;28;20216;-73
2023/10/22 06:02:58;;;;;;;11.25;4.65;;;;;;;20.02;42.71;94825.75;4988231;28;20256;-73
2023/10/22 06:05:23;;;;;;;12.63;4.80;;;;;;;19.96;43.37;94834.63;4985927;28;20188;-74
2023/10/22 06:07:51;;;;;;;14.63;4.38;;;;;;;20.01;43.36;94842.81;4979710;28;20239;-73
2023/10/22 06:10:16;;;;;;;15.05;4.63;;;;;;;20.12;43.37;94830.63;4972551;28;20303;-73
2023/10/22 06:12:42;;;;;;;10.40;4.75;;;;;;;20.07;44.13;94815.25;4974567;28;20228;-72
2023/10/22 06:15:07;;;;;;;14.50;4.75;;;;;;;20.05;44.21;94860.88;4967866;28;21027;-74
2023/10/22 06:17:33;;;;;;;11.13;5.55;;;;;;;19.82;45.18;94898.72;4978600;28;20190;-74
2023/10/22 06:19:59;;;;;;;13.30;5.30;;;;;;;19.92;44.59;94908.97;4986232;28;20195;-73
2023/10/22 06:22:24;;;;;;;13.65;4.95;;;;;;;19.78;44.52;94918.88;4969193;28;20283;-73
2023/10/22 06:24:50;;;;;;;13.55;4.85;;;;;;;19.87;44.83;94894.63;4970359;28;20224;-73
2023/10/22 06:27:15;;;;;;;9.32;5.13;;;;;;;19.93;45.04;94888.44;4948962;28;20232;-73
2023/10/22 06:29:41;;;;;;;11.43;4.95;;;;;;;19.75;45.38;94887.28;4955463;28;20312;-73
2023/10/22 06:32:06;;;;;;;10.55;4.80;;;;;;;19.99;45.31;94883.06;4976649;28;20181;-75
2023/10/22 06:34:32;;;;;;;13.55;4.95;;;;;;;20.01;45.49;94872.16;4982646;28;20244;-73
2023/10/22 06:36:57;;;;;;;15.88;5.38;;;;;;;20.02;44.83;94871.13;4978023;28;20222;-74
2023/10/22 06:39:23;;;;;;;11.85;6.55;;;;;;;19.99;44.95;94888.41;4970561;28;20217;-74
2023/10/22 06:41:48;;;;;;;14.63;7.22;;;;;;;20.13;44.53;94893.66;4969248;28;20228;-74
2023/10/22 06:44:13;;;;;;;16.77;8.35;;;;;;;19.96;45.23;94898.69;4988068;28;20212;-73
2023/10/22 06:46:39;;;;;;;12.68;7.57;;;;;;;20.05;45.16;94897.41;4967667;28;20275;-74
2023/10/22 06:49:04;;;;;;;15.68;8.15;;;;;;;20.12;45.19;94898.19;4968535;28;20240;-74
2023/10/22 06:51:29;;;;;;;17.27;9.30;;;;;;;20.19;44.97;94908.84;4944966;28;20317;-73
2023/10/22 06:53:55;;;;;;;17.70;9.30;;;;;;;20.43;44.80;94915.25;4961575;28;20307;-73
2023/10/22 06:56:20;;;;;;;18.95;9.98;;;;;;;20.23;45.21;94886.84;4972292;28;20547;-74
2023/10/22 06:58:46;;;;;;;19.83;10.18;;;;;;;20.31;45.17;94899.09;4967131;28;20189;-73
2023/10/22 07:01:13;;;;;;;17.75;10.23;;;;;;;20.37;45.00;94905.44;4968254;28;20219;-73
2023/10/22 07:03:43;;;;;;;13.85;9.10;;;;;;;20.44;45.22;94895.53;4971058;28;20228;-73
2023/10/22 07:06:10;;;;;;;13.60;9.20;;;;;;;20.36;45.48;94928.66;4973341;28;20312;-73
2023/10/22 07:08:35;;;;;;;14.90;8.40;;;;;;;20.32;45.54;94892.75;4967761;28;20192;-74
2023/10/22 07:11:00;;;;;;;17.63;9.00;;;;;;;20.44;45.15;94877.66;4987305;28;20206;-73
2023/10/22 07:13:26;;;;;;;15.38;8.57;;;;;;;20.55;45.22;94916.22;4965467;28;20225;-73
2023/10/22 07:15:53;;;;;;;17.17;8.23;;;;;;;20.42;45.50;94917.13;4994231;28;20244;-73
2023/10/22 07:18:19;;;;;;;17.38;9.45;;;;;;;20.68;45.02;94896.63;4974067;28;20228;-73
2023/10/22 07:20:44;;;;;;;10.88;7.60;;;;;;;20.75;44.82;94885.91;4969581;28;20220;-72
2023/10/22 07:23:10;;;;;;;16.27;7.82;;;;;;;20.95;44.80;94902.56;4970726;28;20263;-73
2023/10/22 07:25:36;;;;;;;17.50;8.02;;;;;;;20.80;44.61;94923.47;4968468;28;20302;-73
2023/10/22 07:28:02;;;;;;;13.45;7.28;;;;;;;20.65;44.98;94913.09;4966317;28;20220;-72
2023/10/22 07:30:29;;;;;;;11.32;7.63;;;;;;;20.83;44.36;94901.66;4972444;28;20706;-73
2023/10/22 07:32:55;;;;;;;14.60;7.03;;;;;;;20.87;44.62;94897.50;4974529;28;20267;-73
2023/10/22 07:35:20;;;;;;;17.85;8.35;;;;;;;20.68;45.59;94886.75;4986054;28;20232;-73
2023/10/22 07:37:46;;;;;;;15.77;7.15;;;;;;;20.83;45.07;94890.97;4972515;28;20310;-73
2023/10/22 07:40:17;;;;;;;11.85;7.05;;;;;;;20.85;44.49;94902.22;4972347;28;20224;-74
2023/10/22 07:42:44;;;;;;;11.73;6.60;;;;;;;20.85;44.66;94900.41;4972300;28;20235;-73
2023/10/22 07:45:10;;;;;;;12.70;7.05;;;;;;;20.93;44.59;94891.28;4971605;28;20553;-73
2023/10/22 07:47:36;;;;;;;15.45;7.47;;;;;;;21.11;44.24;94893.16;4972230;28;20211;-73
2023/10/22 07:50:03;;;;;;;13.20;7.68;;;;;;;21.17;43.93;94883.44;4973375;28;20257;-74
2023/10/22 07:52:31;;;;;;;22.77;8.77;;;;;;;21.31;43.58;94884.97;4970519;28;20285;-74
2023/10/22 07:54:56;;;;;;;16.58;8.02;;;;;;;21.43;43.14;94885.06;4972324;28;20278;-73
2023/10/22 07:57:22;;;;;;;14.70;8.10;;;;;;;21.40;43.23;94880.97;4968493;28;20386;-72
2023/10/22 07:59:47;;;;;;;15.20;7.65;;;;;;;21.31;43.34;94874.28;4963940;28;20220;-73
2023/10/22 08:02:13;;;;;;;16.95;8.05;;;;;;;21.35;43.50;94870.91;4951940;28;20216;-74
2023/10/22 08:04:38;;;;;;;18.33;7.70;;;;;;;21.54;43.14;94874.47;4945812;28;20240;-73
2023/10/22 08:07:04;;;;;;;13.82;7.10;;;;;;;21.59;43.04;94866.56;4968660;28;20224;-74
2023/10/22 08:09:30;;;;;;;16.67;6.97;;;;;;;21.65;42.88;94880.94;4965402;28;20228;-74
2023/10/22 08:11:56;;;;;;;16.17;7.13;;;;;;;21.74;42.65;94882.25;4954232;28;20271;-74
2023/10/22 08:14:22;;;;;;;17.33;7.57;;;;;;;21.89;41.99;94860.44;4948542;28;20257;-74
2023/10/22 08:16:48;;;;;;;17.45;7.40;;;;;;;21.90;42.84;94867.44;4955137;28;20177;-74
2023/10/22 08:19:13;;;;;;;17.20;7.53;;;;;;;21.99;42.06;94857.22;4949169;28;20221;-74
2023/10/22 08:21:38;;;;;;;17.45;7.50;;;;;;;22.12;41.62;94858.91;4945753;28;20231;-73
2023/10/22 08:24:05;;;;;;;17.63;8.57;;;;;;;22.25;41.59;94858.75;4963562;28;20284;-73
2023/10/22 08:26:30;;;;;;;20.42;7.85;;;;;;;22.31;41.19;94857.00;4948312;28;20386;-73
2023/10/22 08:28:55;;;;;;;14.13;7.65;;;;;;;22.33;40.84;94844.22;4983388;28;20283;-72
2023/10/22 08:31:21;;;;;;;22.55;7.88;;;;;;;22.17;41.45;94856.38;4964409;28;20265;-74
2023/10/22 08:33:46;;;;;;;16.65;7.85;;;;;;;22.07;41.74;94827.44;4959850;28;20333;-74
2023/10/22 08:36:12;;;;;;;13.98;7.45;;;;;;;22.01;41.74;94858.63;4950841;28;20225;-73
2023/10/22 08:38:37;;;;;;;15.07;7.53;;;;;;;21.96;41.70;94860.34;4954716;28;20244;-73
2023/10/22 08:41:06;;;;;;;15.45;7.35;;;;;;;21.84;41.95;94852.28;4978603;28;20180;-74
2023/10/22 08:43:32;;;;;;;16.40;7.18;;;;;;;21.89;41.68;94860.44;4972830;28;20216;-73
2023/10/22 08:45:58;;;;;;;12.73;7.35;;;;;;;22.03;41.56;94855.72;4967220;28;20303;-73
2023/10/22 08:48:25;;;;;;;13.27;6.95;;;;;;;22.13;41.19;94839.09;4997540;28;20287;-73
2023/10/22 08:50:51;;;;;;;14.95;6.47;;;;;;;;;;4971147;28;20235;-73
2023/10/22 08:53:17;;;;;;;14.55;6.28;;;;;;;22.54;39.67;94834.84;4967095;28;20184;-73
2023/10/22 08:55:45;;;;;;;14.52;6.68;;;;;;;22.64;39.91;94837.72;4972214;28;20216;-73
2023/10/22 08:58:14;;;;;;;17.77;6.35;;;;;;;22.80;39.06;94842.44;4972581;28;20304;-73
2023/10/22 09:00:45;;;;;;;16.65;6.47;;;;;;;22.75;38.87;94834.28;4969141;28;20224;-75
2023/10/22 09:03:11;;;;;;;17.45;6.45;;;;;;;22.95;37.92;94827.75;4970344;28;20244;-73
2023/10/22 09:05:38;;;;;;;13.90;5.63;;;;;;;22.82;38.04;94828.78;4983041;28;20188;-74
2023/10/22 09:08:04;;;;;;;16.92;5.22;;;;;;;22.94;37.56;94826.94;4963206;28;20185;-73
2023/10/22 09:10:31;;;;;;;17.95;4.90;;;;;;;22.84;36.42;94814.09;4966693;28;20260;-74
2023/10/22 09:13:12;;;;;;;15.80;5.05;;;;;;;22.99;35.00;94829.75;4968598;28;20259;-73
2023/10/22 09:15:38;;;;;;;21.30;4.47;;;;;;;22.97;33.43;94826.50;4943155;28;20225;-72
2023/10/22 09:18:04;;;;;;;14.52;4.30;;;;;;;23.07;33.57;94829.41;4958936;28;20227;-72
2023/10/22 09:20:30;;;;;;;14.32;3.75;;;;;;;23.03;33.54;94830.91;4971165;28;20188;-74
2023/10/22 09:23:15;;;;;;;16.10;4.60;;;;;;;23.19;33.20;94821.34;4969537;28;20185;-73
2023/10/22 09:25:41;;;;;;;10.98;3.75;;;;;;;23.29;33.42;94837.66;4972990;28;20227;-73
2023/10/22 09:28:24;;;;;;;14.25;4.07;;;;;;;23.44;33.40;94842.56;4965793;28;20216;-74
2023/10/22 09:31:03;;;;;;;9.55;3.80;;;;;;;23.67;32.88;94832.81;4970325;28;20219;-75
2023/10/22 09:33:39;;;;;;;12.57;3.67;;;;;;;23.81;32.84;94825.31;4961326;28;20244;-77
2023/10/22 09:36:12;;;;;;;9.45;4.20;;;;;;;23.90;33.00;94826.59;4971538;28;20224;-73
2023/10/22 09:38:46;;;;;;;13.55;4.45;;;;;;;24.00;32.25;94816.00;4965662;28;20279;-74
2023/10/22 09:41:25;;;;;;;12.48;3.85;;;;;;;24.03;32.68;94814.72;4967765;28;20196;-73
2023/10/22 09:43:51;;;;;;;12.35;3.72;;;;;;;24.14;32.12;94808.50;4965027;28;20244;-74
2023/10/22 09:46:18;;;;;;;15.93;4.60;;;;;;;24.26;32.25;94805.75;4985060;28;20239;-74
2023/10/22 09:48:47;;;;;;;19.05;4.60;;;;;;;24.44;31.17;94808.25;4973353;28;20231;-74
2023/10/22 09:51:14;;;;;;;18.17;4.90;;;;;;;24.55;31.29;94798.47;4971513;28;20240;-73
2023/10/22 09:53:45;;;;;;;15.82;4.78;;;;;;;24.52;31.39;94786.34;4965138;28;20298;-73
2023/10/22 09:56:11;;;;;;;27.15;6.43;;;;;;;24.79;29.94;94762.28;4991401;28;20191;-73
2023/10/22 09:58:43;;;;;;;21.63;5.90;;;;;;;24.83;30.11;94781.41;4981239;28;20266;-73
2023/10/22 10:01:10;;;;;;;23.48;6.05;;;;;;;24.91;30.30;94772.91;4973923;28;20228;-73
2023/10/22 10:03:37;;;;;;;21.40;5.97;;;;;;;24.95;30.07;94767.88;4968442;28;20316;-74
2023/10/22 10:06:06;;;;;;;30.95;7.13;;;;;;;25.04;30.23;94775.25;4971685;28;20661;-72
2023/10/22 10:08:34;;;;;;;19.27;4.75;;;;;;;25.08;29.84;94775.59;4986061;28;20204;-75
2023/10/22 10:11:00;;;;;;;17.80;5.75;;;;;;;25.01;29.82;94762.31;4970186;28;20189;-74
2023/10/22 10:13:25;;;;;;;15.90;4.93;;;;;;;25.00;29.73;94759.88;4970973;28;20222;-74
2023/10/22 10:16:02;;;;;;;15.68;5.28;;;;;;;25.22;29.31;94759.94;4969257;28;20228;-73
2023/10/22 10:19:00;;;;;;;14.95;5.07;;;;;;;25.29;28.89;94761.38;4972057;28;20224;-74
2023/10/22 10:21:53;;;;;;;18.50;5.32;;;;;;;25.38;28.69;94756.38;4970360;28;20224;-73
2023/10/22 10:24:26;;;;;;;18.65;4.88;;;;;;;25.57;28.71;94748.78;4963885;28;20231;-73
2023/10/22 10:26:58;;;;;;;13.98;4.75;;;;;;;25.77;29.11;94742.81;4972944;28;20235;-74
2023/10/22 10:29:24;;;;;;;22.63;5.47;;;;;;;25.75;29.22;94750.34;4970428;28;20215;-72
2023/10/22 10:31:51;;;;;;;14.55;5.63;;;;;;;25.85;29.29;94744.25;4971326;28;20185;-73
2023/10/22 10:34:40;;;;;;;19.10;5.28;;;;;;;26.03;28.38;94743.91;4971814;28;20240;-75
2023/10/22 10:37:12;;;;;;;19.13;5.40;;;;;;;26.24;28.14;94726.03;4969553;28;20225;-75
2023/10/22 10:39:46;;;;;;;18.80;5.07;;;;;;;26.10;27.62;94724.84;4974845;28;20230;-74
2023/10/22 10:42:13;;;;;;;13.60;5.15;;;;;;;26.01;27.64;94720.97;4990171;28;20224;-73
2023/10/22 10:45:02;;;;;;;21.83;6.03;;;;;;;25.95;27.93;94723.66;4973553;28;20192;-73
2023/10/22 10:47:36;;;;;;;17.13;5.55;;;;;;;25.98;28.18;94725.00;4964624;28;20206;-74
2023/10/22 10:50:12;;;;;;;25.80;5.93;;;;;;;26.14;28.20;94724.09;4980629;28;20188;-74
2023/10/22 10:52:37;;;;;;;19.83;4.90;;;;;;;26.33;27.94;94723.69;4988441;28;20279;-74
2023/10/22 10:55:15;;;;;;;20.05;5.38;;;;;;;26.36;27.79;94717.78;4965009;28;20236;-73
2023/10/22 10:57:44;;;;;;;18.58;5.15;;;;;;;26.39;27.54;94714.56;4962538;28;20217;-75
2023/10/22 11:00:19;;;;;;;16.73;4.72;;;;;;;26.26;28.01;94715.00;4971156;28;20220;-74
2023/10/22 11:02:49;;;;;;;18.27;5.20;;;;;;;26.21;27.97;94734.63;4973168;28;20958;-73
2023/10/22 11:05:16;;;;;;;21.13;6.05;;;;;;;26.29;27.69;94717.19;4985249;28;20244;-73
2023/10/22 11:07:46;;;;;;;22.25;5.75;;;;;;;26.50;27.69;94718.16;4969477;28;20229;-73
2023/10/22 11:10:16;;;;;;;13.90;4.95;;;;;;;26.65;27.30;94714.78;4962852;28;20220;-73
2023/10/22 11:12:43;;;;;;;20.80;5.70;;;;;;;26.81;27.59;94719.19;4969773;28;20297;-74
2023/10/22 11:15:10;;;;;;;18.85;5.22;;;;;;;26.78;27.45;94720.56;4967881;28;20253;-73
2023/10/22 11:17:37;;;;;;;21.42;4.93;;;;;;;26.81;27.70;94720.03;4976598;28;20236;-74
2023/10/22 11:20:07;;;;;;;16.13;5.65;;;;;;;26.98;27.47;94717.16;4973811;28;20191;-72
2023/10/22 11:22:32;;;;;;;17.98;5.25;;;;;;;27.14;27.46;94718.03;4955354;28;20303;-73
2023/10/22 11:25:00;;;;;;;16.13;4.95;;;;;;;27.19;27.53;94714.59;4981542;28;20240;-73
2023/10/22 11:27:26;;;;;;;17.80;5.30;;;;;;;27.37;27.31;94718.69;4983603;28;20276;-72
2023/10/22 11:29:52;;;;;;;17.20;5.22;;;;;;;27.56;26.99;94711.75;4971698;28;20223;-73
2023/10/22 11:32:21;;;;;;;15.63;5.43;;;;;;;27.71;26.90;94711.78;4972801;28;20207;-74